Strona główna
METAR-TAF:

METAR-TAF

Lotnisko :

Port lotniczy Tallinn

Tallinn, Estonia

Szerokość geograficzna: 59-23N, Długość geograficzna: 024-35E, wysokość: 44 m

Aktualna obserwacja pogody

Raport powstał 26 minut temu, godzina 22:20 UTC
Wiatr 5 kt od wschód
Temperatura 10°C
Wilgotność 100%
Ciśnienie 1019 hPa
Widzialność: 0350 m
Przerywane chmury na wysokości 200 ft
zamglenie, Mgła w płatach

METAR: EETN 302220Z 08005KT 1500 0350W R08/1100U BR BCFG BKN002 10/10 Q1019

czas: 01:46 (22:46 UTC)

Prognoza

Raport powstał 5 godziny i 46 minut temu, godzina 17:00 UTC
Prognoza ważna od 30 godzina 18 UTC do 01 godzina 18 UTC
Wiatr 8 kt od wschód
Widzialność: 8000 m
Rozproszone chmury na wysokości 1000 ft
Przejściowo
od 30 godzina 19 UTC do 01 godzina 06 UTC
Widzialność: 0500 m
Przerywane chmury na wysokości 200 ft
Mgła w płatach

TAF: EETN 301700Z 3018/0118 09008KT 8000 SCT010 TEMPO 3019/0106 0500 BCFG BKN002

Obserwacja i prognoza pogody dla ponad 4000 lotnisk (raport METAR i TAF).

Dostępne stacje oznaczono żółtymi i czerwonymi punktami na mapie.

Najedź kursorem aby zobaczyć nazwę stacji.

Kliknij aby zobaczyć obserwacje i prognozy pogody.

Aby zmienić mapę: kliknij na zielony przycisk z czarnym krzyżykiem, aby powiększyć; na zielony przycisk z myślnikiem, aby pomniejszyć; na zielone strzałki, aby przejść do map sąsiednich.


METAR-TAF: